Time;durP1;ratioP1;P1;durP2;ratioP2;P2;SDS_P1;SDS_P2;PMS_P1;PMS_P2;Temp;Humidity;BMP_temperature;BMP_pressure;BME280_temperature;BME280_humidity;BME280_pressure;Samples;Min_cycle;Max_cycle;Signal;HPM_P1;HPM_P2
2023/03/04 00:02:01;;;;;;;4.25;2.55;;;20.30;33.30;;;;;;5055729;28;20021;-51
2023/03/04 00:04:27;;;;;;;7.38;2.85;;;20.30;33.30;;;;;;5053981;28;20087;-52
2023/03/04 00:06:53;;;;;;;5.30;2.58;;;20.30;33.30;;;;;;5054136;28;20037;-54
2023/03/04 00:09:19;;;;;;;5.13;2.50;;;20.20;33.20;;;;;;5052935;28;20025;-57
2023/03/04 00:11:44;;;;;;;4.90;2.50;;;20.30;33.20;;;;;;5074081;28;20055;-52
2023/03/04 00:14:10;;;;;;;6.85;2.90;;;20.20;33.10;;;;;;5072503;28;20076;-52
2023/03/04 00:16:36;;;;;;;5.13;2.40;;;20.20;33.20;;;;;;5053726;28;20033;-54
2023/03/04 00:19:02;;;;;;;5.07;2.72;;;20.30;33.20;;;;;;5053473;28;20033;-51
2023/03/04 00:21:28;;;;;;;5.38;2.60;;;20.20;33.20;;;;;;5054833;28;20077;-50
2023/03/04 00:23:54;;;;;;;8.98;2.90;;;20.20;33.10;;;;;;5054946;28;20025;-51
2023/03/04 00:26:20;;;;;;;4.95;2.42;;;20.20;33.10;;;;;;5052878;28;20082;-51
2023/03/04 00:28:46;;;;;;;4.82;2.40;;;20.30;33.10;;;;;;5054610;28;20444;-53
2023/03/04 00:31:12;;;;;;;5.30;2.33;;;20.20;33.10;;;;;;5053612;28;20028;-54
2023/03/04 00:33:39;;;;;;;6.38;2.80;;;20.20;33.10;;;;;;5053039;28;20033;-53
2023/03/04 00:36:05;;;;;;;6.65;2.60;;;20.20;33.10;;;;;;5052850;28;20041;-54
2023/03/04 00:38:31;;;;;;;5.10;2.15;;;20.20;33.10;;;;;;5054489;28;20474;-51
2023/03/04 00:40:57;;;;;;;7.00;2.30;;;20.20;33.10;;;;;;5054988;28;20079;-51
2023/03/04 00:43:22;;;;;;;4.95;2.08;;;20.20;33.10;;;;;;5036802;28;20049;-56
2023/03/04 00:45:48;;;;;;;5.25;2.17;;;20.20;33.00;;;;;;5052455;28;20112;-50
2023/03/04 00:48:15;;;;;;;5.88;2.08;;;20.20;33.00;;;;;;5052463;28;20475;-53
2023/03/04 00:50:42;;;;;;;5.10;2.28;;;20.20;33.00;;;;;;5054577;28;20021;-52
2023/03/04 00:53:08;;;;;;;7.88;2.65;;;20.20;33.00;;;;;;5036281;28;20033;-52
2023/03/04 00:55:34;;;;;;;4.65;2.00;;;20.20;33.00;;;;;;5047540;28;20055;-52
2023/03/04 00:58:01;;;;;;;5.75;2.15;;;20.20;33.00;;;;;;5053599;28;20061;-55
2023/03/04 01:00:27;;;;;;;4.35;2.20;;;20.20;33.60;;;;;;5053939;28;20480;-54
2023/03/04 01:02:52;;;;;;;5.97;2.20;;;20.20;33.00;;;;;;5063068;28;20020;-50
2023/03/04 01:05:18;;;;;;;3.92;1.98;;;20.20;33.00;;;;;;5038074;28;20342;-53
2023/03/04 01:07:44;;;;;;;5.30;1.95;;;20.20;33.00;;;;;;5035971;28;20032;-54
2023/03/04 01:10:13;;;;;;;5.20;1.85;;;20.20;33.00;;;;;;5069851;28;20090;-55
2023/03/04 01:12:41;;;;;;;4.88;1.83;;;20.20;32.90;;;;;;5072997;28;20098;-51
2023/03/04 01:15:11;;;;;;;6.05;2.17;;;20.20;32.90;;;;;;5074064;28;20472;-52
2023/03/04 01:17:38;;;;;;;4.38;2.10;;;20.20;32.90;;;;;;5066636;28;20471;-49
2023/03/04 01:20:06;;;;;;;5.80;2.00;;;20.20;32.90;;;;;;5055831;28;20056;-51
2023/03/04 01:22:32;;;;;;;5.45;2.25;;;20.20;32.90;;;;;;5057945;28;20060;-52
2023/03/04 01:24:58;;;;;;;4.60;1.98;;;20.10;32.90;;;;;;5057770;28;20025;-52
2023/03/04 01:27:25;;;;;;;5.93;2.22;;;20.20;33.00;;;;;;5037894;28;20108;-50
2023/03/04 01:29:50;;;;;;;4.30;1.63;;;20.10;32.90;;;;;;5038401;28;20445;-55
2023/03/04 01:32:16;;;;;;;4.65;1.60;;;20.10;33.00;;;;;;5040934;28;20107;-55
2023/03/04 01:34:42;;;;;;;4.75;1.73;;;20.10;33.00;;;;;;5057372;28;20044;-52
2023/03/04 01:37:08;;;;;;;3.25;1.48;;;20.10;33.00;;;;;;5029586;28;20037;-53
2023/03/04 01:39:34;;;;;;;5.43;1.70;;;20.10;33.00;;;;;;5069066;28;20043;-54
2023/03/04 01:42:00;;;;;;;5.57;2.00;;;20.10;32.90;;;;;;5036467;28;20449;-51
2023/03/04 01:44:26;;;;;;;3.55;1.40;;;20.10;32.90;;;;;;5036520;28;20361;-54
2023/03/04 01:46:54;;;;;;;3.58;1.52;;;20.10;32.90;;;;;;5038586;28;20029;-50
2023/03/04 01:49:20;;;;;;;2.72;1.52;;;20.10;33.00;;;;;;5056238;28;20033;-52
2023/03/04 01:51:49;;;;;;;3.45;1.70;;;20.10;32.90;;;;;;5057175;28;20440;-53
2023/03/04 01:54:16;;;;;;;3.92;1.45;;;20.10;32.90;;;;;;5058219;28;20041;-52
2023/03/04 01:56:44;;;;;;;3.95;1.42;;;20.10;32.90;;;;;;5057361;28;20357;-52
2023/03/04 01:59:19;;;;;;;3.17;1.30;;;20.10;32.90;;;;;;5054906;28;20091;-49
2023/03/04 02:01:58;;;;;;;3.53;1.20;;;20.10;32.90;;;;;;5054243;28;20029;-52
2023/03/04 02:04:27;;;;;;;4.90;1.55;;;20.10;32.90;;;;;;5057917;28;20115;-53
2023/03/04 02:06:55;;;;;;;4.55;1.65;;;20.10;32.90;;;;;;5057663;28;20137;-52
2023/03/04 02:09:21;;;;;;;4.32;1.55;;;20.10;32.90;;;;;;5055103;28;20597;-49
2023/03/04 02:11:49;;;;;;;4.57;1.55;;;20.10;32.90;;;;;;5055713;28;20352;-49
2023/03/04 02:14:15;;;;;;;5.45;1.58;;;20.10;33.00;;;;;;5056954;28;20465;-51
2023/03/04 02:16:41;;;;;;;5.90;1.83;;;20.00;32.90;;;;;;5056142;28;20090;-52
2023/03/04 02:19:17;;;;;;;3.45;1.40;;;20.00;32.90;;;;;;5055248;28;20460;-51
2023/03/04 02:21:43;;;;;;;5.40;1.67;;;20.00;33.50;;;;;;5055814;28;20475;-54
2023/03/04 02:24:20;;;;;;;3.05;1.30;;;20.00;32.90;;;;;;5036057;28;20033;-49
2023/03/04 02:26:46;;;;;;;4.32;1.40;;;20.00;32.90;;;;;;5049186;28;20029;-51
2023/03/04 02:29:15;;;;;;;3.00;1.30;;;20.00;32.90;;;;;;5055562;28;20029;-49
2023/03/04 02:31:44;;;;;;;3.78;1.40;;;20.00;32.90;;;;;;5049501;28;20436;-52
2023/03/04 02:34:14;;;;;;;3.03;1.42;;;20.00;32.80;;;;;;5052885;28;20059;-52
2023/03/04 02:36:41;;;;;;;4.22;1.10;;;20.00;32.80;;;;;;5056882;28;20362;-52
2023/03/04 02:39:11;;;;;;;3.67;1.23;;;20.00;32.80;;;;;;5039003;28;20029;-53
2023/03/04 02:41:37;;;;;;;2.75;1.02;;;20.00;32.80;;;;;;5055469;28;20033;-52
2023/03/04 02:44:16;;;;;;;2.97;1.35;;;20.00;32.80;;;;;;5053727;28;20021;-53
2023/03/04 02:46:42;;;;;;;5.05;1.40;;;20.00;32.70;;;;;;5056080;28;20075;-48
2023/03/04 02:49:08;;;;;;;3.75;1.30;;;20.00;32.80;;;;;;5061790;28;20040;-49
2023/03/04 02:51:34;;;;;;;5.55;1.58;;;20.00;32.70;;;;;;5056430;28;20344;-56
2023/03/04 02:54:00;;;;;;;3.30;1.30;;;20.00;32.70;;;;;;5035870;28;20029;-55
2023/03/04 02:56:26;;;;;;;3.28;1.10;;;20.00;32.70;;;;;;5035151;28;20040;-51
2023/03/04 02:58:52;;;;;;;3.28;1.45;;;20.00;32.70;;;;;;5035264;28;20037;-52
2023/03/04 03:01:18;;;;;;;4.68;1.20;;;20.00;32.70;;;;;;5035310;28;20022;-52
2023/03/04 03:03:44;;;;;;;3.60;1.35;;;20.00;32.80;;;;;;5050766;28;20029;-51
2023/03/04 03:06:10;;;;;;;1.95;0.90;;;20.00;32.80;;;;;;5056128;28;20032;-53
2023/03/04 03:08:37;;;;;;;4.45;1.30;;;20.00;32.80;;;;;;5070227;28;20032;-50
2023/03/04 03:11:03;;;;;;;3.88;1.30;;;20.00;32.80;;;;;;5073434;28;20034;-52
2023/03/04 03:13:31;;;;;;;10.40;1.25;;;20.00;32.80;;;;;;5058440;28;20045;-51
2023/03/04 03:15:57;;;;;;;2.55;1.10;;;19.90;32.80;;;;;;5054809;28;20399;-55
2023/03/04 03:18:23;;;;;;;2.53;1.02;;;20.00;32.90;;;;;;5068025;28;20030;-52
2023/03/04 03:20:49;;;;;;;2.10;0.90;;;20.00;32.80;;;;;;5035494;28;20516;-51
2023/03/04 03:23:16;;;;;;;3.80;1.30;;;20.00;32.80;;;;;;5050478;28;20460;-52
2023/03/04 03:25:42;;;;;;;3.05;1.00;;;19.90;32.70;;;;;;5049653;28;20440;-50
2023/03/04 03:28:08;;;;;;;3.25;1.23;;;19.90;32.70;;;;;;5034993;28;20065;-53
2023/03/04 03:30:35;;;;;;;2.38;0.93;;;19.90;32.70;;;;;;5051915;28;20060;-52
2023/03/04 03:33:04;;;;;;;4.35;1.35;;;19.90;32.70;;;;;;5052053;28;20108;-53
2023/03/04 03:35:30;;;;;;;2.97;1.10;;;20.00;32.70;;;;;;5054340;28;20020;-53
2023/03/04 03:37:56;;;;;;;3.28;1.20;;;19.90;32.70;;;;;;5037503;28;20033;-52
2023/03/04 03:40:22;;;;;;;3.58;1.05;;;19.90;32.70;;;;;;5053990;28;20029;-54
2023/03/04 03:42:48;;;;;;;4.55;1.20;;;19.90;32.70;;;;;;5053324;28;20390;-53
2023/03/04 03:45:13;;;;;;;2.65;1.00;;;19.90;32.70;;;;;;5054024;28;20033;-54
2023/03/04 03:47:39;;;;;;;3.95;1.27;;;19.90;32.70;;;;;;5069184;28;20454;-53
2023/03/04 03:50:06;;;;;;;3.10;1.02;;;19.90;32.70;;;;;;5075191;28;20467;-50
2023/03/04 03:52:31;;;;;;;9.25;2.42;;;19.90;32.70;;;;;;5074230;28;20036;-53
2023/03/04 03:55:00;;;;;;;3.38;1.25;;;19.90;32.70;;;;;;5051546;28;20545;-52
2023/03/04 03:57:26;;;;;;;3.20;1.25;;;19.90;32.70;;;;;;5053794;28;20056;-54
2023/03/04 03:59:52;;;;;;;3.08;1.08;;;19.90;32.70;;;;;;5055331;28;20091;-54
2023/03/04 04:02:18;;;;;;;2.60;0.73;;;19.90;32.70;;;;;;5066783;28;20020;-54
2023/03/04 04:04:44;;;;;;;2.67;0.85;;;19.90;32.70;;;;;;5074952;28;20029;-52
2023/03/04 04:07:10;;;;;;;3.95;0.90;;;19.90;32.70;;;;;;5054493;28;20029;-54
2023/03/04 04:09:36;;;;;;;3.80;1.15;;;19.90;32.70;;;;;;5072469;28;20119;-55
2023/03/04 04:12:04;;;;;;;5.75;1.13;;;19.90;32.70;;;;;;5074845;28;20025;-49
2023/03/04 04:14:30;;;;;;;2.42;1.00;;;19.90;32.80;;;;;;5074957;28;20119;-52
2023/03/04 04:16:56;;;;;;;2.17;0.90;;;19.90;32.70;;;;;;5062640;28;20061;-53
2023/03/04 04:19:22;;;;;;;4.03;0.80;;;19.90;32.70;;;;;;5052559;28;20064;-51
2023/03/04 04:21:48;;;;;;;3.65;1.10;;;19.90;32.70;;;;;;5050417;28;20076;-53
2023/03/04 04:24:14;;;;;;;3.13;0.93;;;19.90;32.70;;;;;;5035294;28;20052;-52
2023/03/04 04:26:41;;;;;;;2.53;0.85;;;19.90;32.70;;;;;;5047310;28;20025;-53
2023/03/04 04:29:06;;;;;;;2.85;1.05;;;19.90;32.70;;;;;;5053746;28;20116;-52
2023/03/04 04:31:33;;;;;;;4.95;1.23;;;19.80;32.60;;;;;;5053524;28;20194;-52
2023/03/04 04:33:59;;;;;;;3.03;0.73;;;19.80;32.60;;;;;;5052362;28;20025;-50
2023/03/04 04:36:25;;;;;;;4.05;1.13;;;19.80;32.70;;;;;;5054938;28;20116;-52
2023/03/04 04:38:51;;;;;;;2.25;0.90;;;19.90;32.70;;;;;;5054687;28;20033;-51
2023/03/04 04:41:23;;;;;;;3.08;0.90;;;19.80;32.60;;;;;;5053391;28;20036;-51
2023/03/04 04:43:49;;;;;;;3.08;0.90;;;19.80;32.70;;;;;;5053322;28;20458;-53
2023/03/04 04:46:16;;;;;;;2.70;1.00;;;19.80;32.70;;;;;;5054039;28;20033;-50
2023/03/04 04:48:42;;;;;;;2.08;0.85;;;19.80;32.70;;;;;;5053642;28;20031;-49
2023/03/04 04:51:08;;;;;;;4.05;1.05;;;19.80;32.70;;;;;;5054049;28;20032;-51
2023/03/04 04:53:34;;;;;;;3.78;0.93;;;19.80;32.70;;;;;;5053689;28;20029;-53
2023/03/04 04:56:08;;;;;;;3.20;1.17;;;19.80;32.70;;;;;;5055251;28;20098;-51
2023/03/04 04:58:34;;;;;;;2.78;0.73;;;19.80;32.70;;;;;;5038201;28;20037;-49
2023/03/04 05:01:00;;;;;;;3.92;1.20;;;19.80;32.70;;;;;;5049928;28;20055;-54
2023/03/04 05:03:26;;;;;;;1.92;0.70;;;19.80;32.70;;;;;;5047787;28;20038;-52
2023/03/04 05:05:52;;;;;;;2.97;0.88;;;19.80;32.80;;;;;;5038479;28;20042;-52
2023/03/04 05:08:17;;;;;;;2.42;0.75;;;19.80;32.80;;;;;;5045013;28;20025;-50
2023/03/04 05:10:43;;;;;;;2.35;0.70;;;19.80;32.80;;;;;;5058281;28;20440;-53
2023/03/04 05:13:09;;;;;;;2.60;0.82;;;19.80;32.80;;;;;;5055046;28;20059;-51
2023/03/04 05:15:37;;;;;;;3.67;0.90;;;19.80;32.90;;;;;;5057457;28;20418;-47
2023/03/04 05:18:03;;;;;;;3.60;1.02;;;19.80;32.90;;;;;;5056986;28;20329;-51
2023/03/04 05:20:29;;;;;;;3.95;0.80;;;19.80;32.90;;;;;;5078078;28;20028;-51
2023/03/04 05:22:55;;;;;;;3.05;1.17;;;19.80;32.90;;;;;;5060002;28;20028;-51
2023/03/04 05:25:21;;;;;;;2.97;1.05;;;19.80;32.90;;;;;;5039702;28;20053;-49
2023/03/04 05:27:47;;;;;;;3.33;0.88;;;19.80;32.90;;;;;;5057980;28;20037;-49
2023/03/04 05:30:13;;;;;;;2.53;0.88;;;19.70;32.90;;;;;;5057293;28;20439;-53
2023/03/04 05:32:39;;;;;;;2.28;0.70;;;19.70;32.90;;;;;;5056294;28;20416;-50
2023/03/04 05:35:06;;;;;;;3.47;0.75;;;19.80;33.00;;;;;;5057011;28;20080;-51
2023/03/04 05:37:31;;;;;;;2.45;0.82;;;19.70;32.90;;;;;;5056518;28;20025;-50
2023/03/04 05:39:57;;;;;;;4.28;1.10;;;19.70;33.00;;;;;;5057633;28;20456;-51
2023/03/04 05:42:23;;;;;;;3.22;0.77;;;19.70;33.00;;;;;;5056198;28;20028;-55
2023/03/04 05:44:49;;;;;;;3.08;0.98;;;19.70;33.00;;;;;;5048114;28;20029;-49
2023/03/04 05:47:15;;;;;;;1.58;0.70;;;19.70;33.00;;;;;;5040422;28;20025;-50
2023/03/04 05:49:41;;;;;;;2.70;0.77;;;19.70;33.00;;;;;;5073970;28;20340;-53
2023/03/04 05:52:07;;;;;;;3.17;0.95;;;19.70;33.00;;;;;;5076981;28;20033;-51
2023/03/04 05:54:33;;;;;;;1.95;0.70;;;19.70;33.00;;;;;;5057284;28;20040;-51
2023/03/04 05:56:59;;;;;;;2.75;0.50;;;19.70;33.10;;;;;;5058602;28;20086;-51
2023/03/04 05:59:24;;;;;;;2.10;0.70;;;19.70;33.10;;;;;;5077481;28;20040;-51
2023/03/04 06:01:50;;;;;;;1.98;0.70;;;19.70;33.10;;;;;;5071016;28;20032;-49
2023/03/04 06:04:16;;;;;;;2.33;0.95;;;19.70;33.10;;;;;;5056334;28;20431;-50
2023/03/04 06:06:42;;;;;;;2.38;0.88;;;19.70;33.10;;;;;;5054967;28;20445;-49
2023/03/04 06:09:08;;;;;;;2.22;0.95;;;19.70;33.10;;;;;;5068212;28;20024;-55
2023/03/04 06:11:33;;;;;;;3.00;0.80;;;19.70;33.10;;;;;;5075840;28;20117;-54
2023/03/04 06:13:59;;;;;;;2.47;0.80;;;19.70;33.10;;;;;;5076572;28;20485;-50
2023/03/04 06:16:25;;;;;;;3.78;0.70;;;19.70;33.10;;;;;;5063056;28;20383;-52
2023/03/04 06:18:52;;;;;;;2.03;0.80;;;19.70;33.10;;;;;;5065535;28;20116;-49
2023/03/04 06:21:17;;;;;;;2.50;0.80;;;19.70;33.20;;;;;;5077115;28;20392;-53
2023/03/04 06:23:44;;;;;;;3.47;0.88;;;19.70;33.10;;;;;;5063608;28;20362;-54
2023/03/04 06:26:14;;;;;;;1.90;0.55;;;19.70;33.20;;;;;;5047719;28;20103;-53
2023/03/04 06:28:43;;;;;;;3.60;0.75;;;19.70;33.20;;;;;;5036238;28;20033;-53
2023/03/04 06:31:09;;;;;;;3.20;0.73;;;19.70;33.90;;;;;;5036672;28;20025;-50
2023/03/04 06:33:35;;;;;;;2.83;0.65;;;19.70;33.20;;;;;;5038110;28;20072;-52
2023/03/04 06:36:01;;;;;;;3.17;0.77;;;19.70;33.30;;;;;;5037032;28;20069;-52
2023/03/04 06:38:27;;;;;;;2.30;0.70;;;19.70;33.30;;;;;;5036749;28;20088;-49
2023/03/04 06:40:54;;;;;;;3.28;0.65;;;19.70;33.30;;;;;;5045496;28;20091;-51
2023/03/04 06:43:20;;;;;;;2.17;0.65;;;19.70;33.30;;;;;;5048627;28;20067;-51
2023/03/04 06:45:46;;;;;;;3.60;0.77;;;19.70;33.30;;;;;;5036593;28;20053;-51
2023/03/04 06:48:12;;;;;;;2.65;0.75;;;19.70;33.30;;;;;;5045613;28;20029;-52
2023/03/04 06:50:41;;;;;;;2.42;0.60;;;19.70;33.30;;;;;;5055372;28;20017;-49
2023/03/04 06:53:06;;;;;;;2.05;0.65;;;19.70;33.30;;;;;;5056301;28;20036;-54
2023/03/04 06:55:32;;;;;;;1.60;0.60;;;19.70;33.30;;;;;;5055331;28;20104;-53
2023/03/04 06:57:58;;;;;;;1.98;0.70;;;19.70;33.30;;;;;;5055950;28;20513;-53
2023/03/04 07:00:24;;;;;;;1.63;0.65;;;19.70;33.30;;;;;;5054692;28;20048;-53
2023/03/04 07:02:50;;;;;;;1.55;0.60;;;19.70;33.30;;;;;;5049574;28;20060;-50
2023/03/04 07:05:16;;;;;;;2.80;0.68;;;19.70;33.30;;;;;;5036203;28;20087;-51
2023/03/04 07:07:41;;;;;;;2.42;0.70;;;19.70;33.30;;;;;;5037537;28;20616;-51
2023/03/04 07:10:09;;;;;;;2.80;0.88;;;19.70;34.00;;;;;;5055652;28;20028;-56
2023/03/04 07:12:35;;;;;;;1.85;0.55;;;19.70;33.30;;;;;;5055249;28;20067;-53
2023/03/04 07:15:01;;;;;;;2.45;0.60;;;19.70;33.30;;;;;;5055410;28;20435;-52
2023/03/04 07:17:27;;;;;;;3.03;0.80;;;19.70;33.40;;;;;;5054285;28;20036;-55
2023/03/04 07:19:53;;;;;;;3.47;0.73;;;19.70;33.40;;;;;;5049808;28;20026;-50
2023/03/04 07:22:19;;;;;;;1.95;0.50;;;19.70;33.40;;;;;;5048503;28;20033;-51
2023/03/04 07:24:46;;;;;;;2.50;0.73;;;19.70;33.40;;;;;;5051573;28;20052;-55
2023/03/04 07:27:11;;;;;;;2.53;0.60;;;19.70;33.40;;;;;;5038176;28;20475;-53
2023/03/04 07:29:37;;;;;;;4.03;0.85;;;19.70;33.40;;;;;;5041115;28;20117;-49
2023/03/04 07:32:07;;;;;;;6.32;0.80;;;19.70;33.30;;;;;;5035876;28;20044;-50
2023/03/04 07:34:33;;;;;;;2.38;0.70;;;19.70;33.30;;;;;;5042624;28;20111;-50
2023/03/04 07:36:59;;;;;;;3.25;0.80;;;19.70;33.30;;;;;;5054611;28;20108;-50
2023/03/04 07:39:25;;;;;;;2.65;0.98;;;19.70;33.30;;;;;;5045356;28;20529;-49
2023/03/04 07:41:51;;;;;;;3.85;1.23;;;19.70;33.30;;;;;;5051275;28;20095;-51
2023/03/04 07:44:16;;;;;;;3.20;1.40;;;19.70;33.40;;;;;;5053515;28;20453;-53
2023/03/04 07:46:42;;;;;;;3.83;1.10;;;19.70;33.40;;;;;;5054099;28;20036;-49
2023/03/04 07:49:11;;;;;;;2.78;1.30;;;19.70;33.30;;;;;;5044923;28;20029;-54
2023/03/04 07:51:36;;;;;;;4.65;1.20;;;19.70;33.30;;;;;;5049544;28;20036;-51
2023/03/04 07:54:02;;;;;;;6.45;1.90;;;19.70;33.30;;;;;;5051803;28;20021;-52
2023/03/04 07:56:31;;;;;;;3.13;1.50;;;19.70;33.30;;;;;;5051988;28;20025;-53
2023/03/04 07:58:57;;;;;;;3.10;1.52;;;19.70;33.20;;;;;;5048118;28;20025;-52
2023/03/04 08:01:26;;;;;;;4.28;1.73;;;19.80;33.30;;;;;;5051617;28;20067;-50
2023/03/04 08:03:52;;;;;;;3.20;1.60;;;19.80;33.20;;;;;;5051248;28;20033;-51
2023/03/04 08:06:19;;;;;;;4.28;2.00;;;19.80;33.80;;;;;;5049625;28;20460;-55
2023/03/04 08:08:46;;;;;;;4.90;2.50;;;19.90;33.20;;;;;;5054359;28;20037;-51
2023/03/04 08:11:15;;;;;;;4.20;2.13;;;19.90;33.10;;;;;;5053306;28;20025;-52
2023/03/04 08:13:43;;;;;;;5.88;2.80;;;19.90;33.10;;;;;;5051203;28;20037;-53
2023/03/04 08:16:14;;;;;;;10.15;4.80;;;19.90;33.20;;;;;;5051447;28;20155;-52
2023/03/04 08:18:41;;;;;;;8.45;5.53;;;20.00;33.50;;;;;;5057753;28;20036;-56
2023/03/04 08:21:09;;;;;;;11.25;5.93;;;20.10;33.90;;;;;;5051702;28;20043;-52
2023/03/04 08:23:35;;;;;;;10.32;6.60;;;20.10;34.00;;;;;;5053191;28;20337;-51
2023/03/04 08:26:09;;;;;;;8.93;6.35;;;20.10;33.90;;;;;;5050797;28;20017;-53
2023/03/04 08:28:35;;;;;;;10.50;6.10;;;20.20;33.90;;;;;;5049441;28;20057;-53
2023/03/04 08:31:01;;;;;;;9.38;6.00;;;20.20;33.80;;;;;;5052084;28;20114;-51
2023/03/04 08:33:26;;;;;;;7.43;5.53;;;20.20;33.70;;;;;;5047700;28;20035;-53
2023/03/04 08:35:52;;;;;;;8.23;5.15;;;20.30;33.70;;;;;;5052320;28;20613;-50
2023/03/04 08:38:18;;;;;;;9.13;5.88;;;20.30;33.60;;;;;;5052020;28;20029;-54
2023/03/04 08:40:44;;;;;;;7.95;5.18;;;20.30;33.60;;;;;;5052522;28;20448;-54
2023/03/04 08:43:10;;;;;;;9.57;5.47;;;20.30;33.50;;;;;;5051066;28;20025;-53
2023/03/04 08:45:36;;;;;;;9.18;5.80;;;20.40;33.50;;;;;;5046591;28;20021;-54
2023/03/04 08:48:01;;;;;;;8.65;5.75;;;20.40;33.50;;;;;;5040630;28;20026;-54
2023/03/04 08:50:27;;;;;;;9.23;6.20;;;20.40;33.50;;;;;;5039334;28;20021;-53
2023/03/04 08:52:53;;;;;;;9.75;6.93;;;20.50;33.60;;;;;;5037921;28;20020;-55
2023/03/04 08:55:19;;;;;;;10.70;7.05;;;20.50;33.50;;;;;;5040556;28;20036;-54
2023/03/04 08:57:45;;;;;;;11.88;8.30;;;20.50;33.50;;;;;;5041593;28;20037;-50
2023/03/04 09:00:12;;;;;;;13.32;8.73;;;20.50;33.60;;;;;;5056049;28;20138;-54
2023/03/04 09:02:37;;;;;;;10.93;7.93;;;20.50;33.60;;;;;;5073425;28;20059;-48
2023/03/04 09:05:04;;;;;;;12.45;7.70;;;20.50;33.60;;;;;;5073148;28;20440;-50
2023/03/04 09:07:30;;;;;;;10.15;7.40;;;20.50;33.60;;;;;;5070735;28;20043;-48
2023/03/04 09:09:55;;;;;;;9.98;7.18;;;20.60;33.60;;;;;;5073258;28;20115;-51
2023/03/04 09:12:21;;;;;;;10.63;6.45;;;20.50;33.60;;;;;;5074457;28;20063;-49
2023/03/04 09:14:47;;;;;;;8.98;6.20;;;20.60;33.60;;;;;;5057711;28;20345;-51
2023/03/04 09:17:13;;;;;;;9.48;6.07;;;20.50;33.60;;;;;;5052958;28;20112;-51
2023/03/04 09:19:39;;;;;;;8.00;5.70;;;20.60;33.70;;;;;;5053511;28;20116;-51
2023/03/04 09:22:05;;;;;;;8.73;5.57;;;20.60;33.70;;;;;;5053013;28;20491;-51
2023/03/04 09:24:30;;;;;;;8.32;6.03;;;20.60;33.70;;;;;;5052072;28;20033;-53
2023/03/04 09:26:56;;;;;;;7.40;5.70;;;20.60;33.70;;;;;;5052220;28;20113;-51
2023/03/04 09:29:22;;;;;;;7.05;5.35;;;20.60;33.70;;;;;;5052515;28;20036;-54
2023/03/04 09:31:48;;;;;;;9.25;5.80;;;20.60;33.80;;;;;;5061546;28;20040;-50
2023/03/04 09:34:14;;;;;;;7.38;5.68;;;20.60;33.80;;;;;;5059469;28;20094;-51
2023/03/04 09:36:40;;;;;;;8.63;5.63;;;20.60;33.80;;;;;;5057243;28;20087;-50
2023/03/04 09:39:06;;;;;;;8.02;5.57;;;20.60;33.80;;;;;;5052714;28;20334;-51
2023/03/04 09:41:43;;;;;;;8.27;5.95;;;20.60;33.90;;;;;;5056248;28;20056;-49
2023/03/04 09:44:22;;;;;;;7.22;5.45;;;20.60;33.90;;;;;;5053522;28;20330;-52
2023/03/04 09:46:49;;;;;;;9.80;6.32;;;20.60;34.00;;;;;;5053543;28;20039;-51
2023/03/04 09:49:16;;;;;;;7.63;5.68;;;20.60;34.00;;;;;;5056179;28;20029;-51
2023/03/04 09:51:59;;;;;;;8.60;6.03;;;20.60;34.00;;;;;;5057608;28;20031;-51
2023/03/04 09:55:03;;;;;;;8.40;5.70;;;20.60;34.00;;;;;;5055593;28;20416;-50
2023/03/04 09:57:59;;;;;;;7.85;5.60;;;20.60;34.10;;;;;;5055680;28;20017;-52
2023/03/04 10:00:39;;;;;;;7.88;5.50;;;20.60;34.10;;;;;;5049432;28;20271;-53
2023/03/04 10:03:11;;;;;;;9.73;6.15;;;20.60;34.10;;;;;;5051522;28;20094;-48
2023/03/04 10:06:01;;;;;;;8.48;5.80;;;20.60;34.20;;;;;;5052671;28;20033;-49
2023/03/04 10:08:44;;;;;;;9.15;6.30;;;20.60;34.20;;;;;;5049413;28;20040;-52
2023/03/04 10:11:34;;;;;;;8.85;6.63;;;20.70;34.40;;;;;;5054067;28;20091;-52
2023/03/04 10:14:09;;;;;;;7.90;5.80;;;20.70;34.60;;;;;;5053577;28;20036;-54
2023/03/04 10:16:51;;;;;;;11.13;7.32;;;20.70;34.70;;;;;;5049768;28;20029;-58
2023/03/04 10:19:26;;;;;;;10.73;8.52;;;20.70;34.90;;;;;;5058111;28;20068;-51
2023/03/04 10:21:52;;;;;;;16.52;11.73;;;20.70;35.10;;;;;;5049999;28;20029;-56
2023/03/04 10:24:21;;;;;;;18.35;13.32;;;20.70;35.40;;;;;;5055734;28;20170;-57
2023/03/04 10:26:53;;;;;;;17.70;13.90;;;20.70;35.70;;;;;;5055610;28;20029;-57
2023/03/04 10:29:23;;;;;;;18.98;14.18;;;20.70;35.70;;;;;;5054508;28;20512;-56
2023/03/04 10:31:49;;;;;;;18.80;13.70;;;20.70;36.00;;;;;;5053034;28;20040;-56
2023/03/04 10:34:16;;;;;;;16.67;12.75;;;20.70;36.10;;;;;;5054484;28;20408;-58
2023/03/04 10:36:57;;;;;;;16.83;12.13;;;20.70;36.20;;;;;;5054626;28;20021;-55
2023/03/04 10:39:30;;;;;;;13.93;10.98;;;20.80;36.30;;;;;;5052470;28;20036;-55
2023/03/04 10:42:21;;;;;;;15.73;10.68;;;20.80;36.30;;;;;;5055059;28;20338;-51
2023/03/04 10:44:54;;;;;;;13.90;9.35;;;20.80;36.30;;;;;;5052140;28;20417;-52
2023/03/04 10:47:26;;;;;;;12.15;8.88;;;20.90;36.40;;;;;;5054003;28;20083;-55
2023/03/04 10:49:58;;;;;;;11.45;8.45;;;20.90;36.40;;;;;;5052317;28;20045;-53
2023/03/04 10:52:46;;;;;;;12.95;8.13;;;20.90;36.40;;;;;;5051546;28;20043;-54
2023/03/04 10:55:21;;;;;;;11.10;7.97;;;20.90;36.30;;;;;;5052845;28;20159;-50
2023/03/04 10:58:03;;;;;;;11.00;7.68;;;20.90;36.30;;;;;;5055347;28;20048;-54
2023/03/04 11:00:35;;;;;;;8.82;7.07;;;20.90;36.30;;;;;;5047591;28;20155;-54
2023/03/04 11:03:23;;;;;;;10.45;6.72;;;21.00;36.30;;;;;;5051546;28;20025;-56
2023/03/04 11:05:52;;;;;;;12.73;6.82;;;20.90;36.30;;;;;;5051503;28;20025;-53
2023/03/04 11:08:21;;;;;;;12.27;7.10;;;20.90;36.30;;;;;;5052340;28;20048;-53
2023/03/04 11:10:49;;;;;;;9.68;7.57;;;20.90;36.20;;;;;;5051293;28;20063;-54
2023/03/04 11:13:25;;;;;;;10.85;7.75;;;21.00;36.20;;;;;;5054347;28;20044;-52
2023/03/04 11:16:03;;;;;;;8.75;7.15;;;20.90;36.00;;;;;;5054684;28;20449;-50
2023/03/04 11:18:47;;;;;;;10.40;7.57;;;21.00;36.00;;;;;;5047937;28;20063;-56
2023/03/04 11:21:23;;;;;;;9.13;7.53;;;21.00;36.00;;;;;;5043395;28;20033;-51
2023/03/04 11:23:58;;;;;;;11.43;8.30;;;21.00;36.10;;;;;;5041818;28;20029;-52
2023/03/04 11:26:42;;;;;;;13.77;10.10;;;21.00;36.10;;;;;;5046691;28;20108;-54
2023/03/04 11:29:19;;;;;;;18.25;13.10;;;21.00;36.20;;;;;;5043235;28;20987;-57
2023/03/04 11:31:48;;;;;;;18.70;14.13;;;21.00;36.30;;;;;;5043698;28;20040;-52
2023/03/04 11:34:19;;;;;;;22.77;14.55;;;21.00;36.40;;;;;;5042750;28;20039;-54
2023/03/04 11:37:15;;;;;;;20.90;15.60;;;21.10;36.50;;;;;;5045414;28;20109;-53
2023/03/04 11:39:57;;;;;;;22.35;16.65;;;21.00;36.30;;;;;;5042867;28;20061;-51
2023/03/04 11:42:38;;;;;;;21.23;15.77;;;21.00;36.20;;;;;;5034062;28;20109;-52
2023/03/04 11:45:12;;;;;;;17.27;13.60;;;21.00;36.10;;;;;;5040551;28;20025;-49
2023/03/04 11:47:47;;;;;;;19.42;14.68;;;21.10;35.90;;;;;;5042482;28;21836;-53
2023/03/04 11:50:24;;;;;;;19.00;13.25;;;21.00;35.70;;;;;;5046750;28;20457;-52
2023/03/04 11:52:53;;;;;;;17.38;13.75;;;21.00;35.70;;;;;;5041083;28;20087;-51
2023/03/04 11:55:47;;;;;;;18.23;13.80;;;21.00;35.70;;;;;;5037030;28;20032;-55
2023/03/04 11:58:31;;;;;;;20.13;13.27;;;21.00;35.70;;;;;;5045543;28;20021;-51
2023/03/04 12:01:17;;;;;;;16.55;12.25;;;21.00;35.60;;;;;;5038107;28;20130;-52
2023/03/04 12:03:51;;;;;;;14.02;11.02;;;21.00;35.50;;;;;;5045982;28;20448;-54
2023/03/04 12:06:31;;;;;;;13.32;10.80;;;21.00;35.40;;;;;;5040181;28;20033;-54
2023/03/04 12:09:25;;;;;;;14.57;9.90;;;21.00;35.40;;;;;;5041436;28;20033;-54
2023/03/04 12:12:15;;;;;;;11.00;8.15;;;21.00;35.30;;;;;;5042257;28;20021;-51
2023/03/04 12:15:07;;;;;;;10.93;8.57;;;21.00;35.30;;;;;;5042335;28;20045;-53
2023/03/04 12:17:51;;;;;;;9.80;7.95;;;21.10;35.30;;;;;;5041172;28;20116;-51
2023/03/04 12:20:29;;;;;;;9.00;6.72;;;21.10;35.30;;;;;;5043934;28;20041;-55
2023/03/04 12:23:10;;;;;;;9.70;6.72;;;21.10;35.30;;;;;;5044021;28;20033;-53
2023/03/04 12:25:57;;;;;;;8.38;6.55;;;21.10;35.20;;;;;;5042026;28;20034;-55
2023/03/04 12:28:26;;;;;;;7.80;6.40;;;21.10;35.20;;;;;;5044464;28;20112;-55
2023/03/04 12:30:55;;;;;;;8.95;6.82;;;21.10;35.10;;;;;;5044915;28;20032;-55
2023/03/04 12:33:49;;;;;;;8.48;6.05;;;21.10;35.10;;;;;;5045909;28;20119;-54
2023/03/04 12:36:36;;;;;;;10.95;6.35;;;21.10;35.10;;;;;;5043790;28;20049;-50
2023/03/04 12:39:31;;;;;;;13.20;10.85;;;21.10;35.00;;;;;;5040937;28;20017;-55
2023/03/04 12:42:18;;;;;;;18.00;12.98;;;21.20;35.50;;;;;;5044628;28;20030;-53
2023/03/04 12:45:07;;;;;;;17.45;13.18;;;21.20;35.60;;;;;;5039243;28;20119;-52
2023/03/04 12:48:00;;;;;;;17.98;13.93;;;21.20;35.50;;;;;;5034605;28;20079;-54
2023/03/04 12:50:28;;;;;;;19.15;14.80;;;21.20;35.40;;;;;;5039657;28;20100;-51
2023/03/04 12:53:23;;;;;;;20.20;16.23;;;21.20;35.20;;;;;;5042740;28;20033;-55
2023/03/04 12:55:50;;;;;;;19.85;15.50;;;21.20;35.10;;;;;;5037898;28;20048;-49